Troy, MI

10:54 AM EDT on March 29, 2017 (GMT -0400)
Troy

Weather History for KVLL - August, 2013

Change the Weather History Date:

Saturday, August 3, 2013

  Actual Average (KDET) Record (KDET)
Temperature  
Mean Temperature 70 °F -  
Max Temperature 79 °F 82 °F 96 °F (1955)
Min Temperature 61 °F 65 °F 50 °F (1965)
Cooling Degree Days 5    
Growing Degree Days 20 (Base 50)    
Moisture  
Dew Point 54 °F    
Average Humidity 58    
Maximum Humidity 88    
Minimum Humidity 30    
Precipitation  
Precipitation 0.00 in - - ()
Sea Level Pressure  
Sea Level Pressure 30.01 in    
Wind  
Wind Speed 5 mph (NW)    
Max Wind Speed 14 mph    
Max Gust Speed 17 mph    
Visibility 10 miles    
Events      
Averages and records for this station are not official NWS values.
T = Trace of Precipitation, MM = Missing Value Source: NWS Daily Summary

Daily Weather History Graph

Daily Weather History Graph

Search for Another Location

Airport or City:

Trip Planner

Search our weather history database for the weather conditions in past years. The results will help you decide how hot, cold, wet, or windy it might be!

Date:

Astronomy

Aug. 03, 2013 Rise Set
Actual Time 6:27 AM EDT 8:49 PM EDT
Civil Twilight 5:55 AM EDT 9:21 PM EDT
Nautical Twilight 5:16 AM EDT 10:00 PM EDT
Astronomical Twilight 4:32 AM EDT 10:44 PM EDT
Moon 3:34 AM EDT (8/3) 6:32 PM EDT (8/3)
Length of Visible Light 15h 26m
Length of Day
14h 22m
Waning Crescent, 9% of the Moon is Illuminated
Aug 3
Waning Crescent
Aug 6
New
Aug 14
First Quarter
Aug 20
Full
Aug 28
Last Quarter

Hourly Weather History & Observations

Time (EDT) Temp. Dew Point Humidity Pressure Visibility Wind Dir Wind Speed Gust Speed Precip Events Conditions
12:15 AM 68.9 °F 63.7 °F 83% 29.92 in 10.0 mi WSW 4.6 mph - N/A   Clear
12:35 AM 69.1 °F 63.9 °F 83% 29.93 in 10.0 mi West 4.6 mph - N/A   Clear
12:54 AM 69.8 °F 63.1 °F 79% 29.94 in 10.0 mi WNW 4.6 mph - N/A   Clear
1:15 AM 69.4 °F 63.0 °F 80% 29.95 in 10.0 mi West 5.8 mph - N/A   Clear
1:35 AM 69.1 °F 62.8 °F 80% 29.95 in 10.0 mi WNW 4.6 mph - N/A   Clear
1:54 AM 68.9 °F 62.6 °F 80% 29.95 in 10.0 mi West 3.5 mph - N/A   Clear
2:15 AM 68.4 °F 62.1 °F 80% 29.95 in 10.0 mi West 3.5 mph - N/A   Clear
2:34 AM 68.2 °F 61.9 °F 80% 29.96 in 10.0 mi WNW 3.5 mph - N/A   Clear
2:55 AM 67.6 °F 61.5 °F 81% 29.96 in 10.0 mi Calm Calm - N/A   Clear
3:14 AM 66.6 °F 61.3 °F 83% 29.96 in 10.0 mi Calm Calm - N/A   Clear
3:35 AM 66.2 °F 61.2 °F 84% 29.96 in 10.0 mi Calm Calm - N/A   Clear
3:54 AM 65.5 °F 60.8 °F 85% 29.96 in 10.0 mi Calm Calm - N/A   Clear
4:15 AM 64.8 °F 60.3 °F 85% 29.97 in 10.0 mi Calm Calm - N/A   Clear
4:35 AM 64.4 °F 59.9 °F 85% 29.97 in 10.0 mi Calm Calm - N/A   Clear
4:54 AM 64.4 °F 59.0 °F 83% 29.98 in 10.0 mi Calm Calm - N/A   Clear
5:15 AM 63.5 °F 58.6 °F 84% 29.98 in 10.0 mi Calm Calm - N/A   Clear
5:34 AM 62.2 °F 58.1 °F 86% 29.99 in 10.0 mi Calm Calm - N/A   Clear
5:55 AM 61.3 °F 57.7 °F 88% 29.99 in 10.0 mi Calm Calm - N/A   Clear
6:15 AM 62.4 °F 57.7 °F 85% 29.99 in 10.0 mi Calm Calm - N/A   Clear
6:34 AM 61.9 °F 57.0 °F 84% 30.00 in 10.0 mi Calm Calm - N/A   Clear
6:55 AM 62.1 °F 57.2 °F 84% 30.00 in 10.0 mi Calm Calm - N/A   Clear
7:15 AM 62.6 °F 57.2 °F 82% 30.00 in 10.0 mi Calm Calm - N/A   Clear
7:34 AM 63.0 °F 57.4 °F 82% 30.00 in 10.0 mi Calm Calm - N/A   Clear
7:55 AM 64.4 °F 57.6 °F 78% 30.01 in 10.0 mi NNW 4.6 mph - N/A   Clear
8:15 AM 65.3 °F 57.6 °F 76% 30.01 in 10.0 mi NNW 4.6 mph - N/A   Clear
8:34 AM 66.2 °F 57.2 °F 73% 30.01 in 10.0 mi North 4.6 mph - N/A   Clear
8:55 AM 67.5 °F 57.2 °F 70% 30.01 in 10.0 mi North 4.6 mph - N/A   Clear
9:15 AM 69.3 °F 56.8 °F 65% 30.01 in 10.0 mi NNW 3.5 mph - N/A   Clear
9:35 AM 69.8 °F 56.5 °F 63% 30.02 in 10.0 mi NNW 3.5 mph - N/A   Clear
9:55 AM 71.1 °F 55.8 °F 58% 30.02 in 10.0 mi NNW 6.9 mph - N/A   Clear
10:14 AM 71.8 °F 55.2 °F 56% 30.02 in 10.0 mi NNW 6.9 mph - N/A   Clear
10:35 AM 72.9 °F 53.6 °F 51% 30.02 in 10.0 mi North 4.6 mph - N/A   Clear
10:55 AM 73.6 °F 54.0 °F 50% 30.02 in 10.0 mi NW 6.9 mph - N/A   Clear
11:15 AM 73.9 °F 54.1 °F 50% 30.02 in 10.0 mi North 6.9 mph - N/A   Clear
11:35 AM 74.8 °F 53.2 °F 47% 30.02 in 10.0 mi NNW 6.9 mph - N/A   Clear
11:55 AM 75.4 °F 53.4 °F 46% 30.02 in 10.0 mi WNW 6.9 mph - N/A   Clear
12:15 PM 76.3 °F 53.1 °F 44% 30.02 in 10.0 mi North 9.2 mph 17.3 mph N/A   Mostly Cloudy
12:34 PM 76.1 °F 52.9 °F 44% 30.02 in 10.0 mi NW 5.8 mph - N/A   Mostly Cloudy
12:55 PM 77.0 °F 51.4 °F 41% 30.02 in 10.0 mi WNW 9.2 mph 16.1 mph N/A   Mostly Cloudy
1:15 PM 77.5 °F 49.3 °F 37% 30.02 in 10.0 mi NNW 9.2 mph 16.1 mph N/A   Mostly Cloudy
1:34 PM 76.8 °F 49.6 °F 38% 30.02 in 10.0 mi WNW 3.5 mph 16.1 mph N/A   Scattered Clouds
1:55 PM 76.5 °F 50.5 °F 40% 30.03 in 10.0 mi NW 6.9 mph - N/A   Scattered Clouds
2:15 PM 78.1 °F 48.7 °F 36% 30.03 in 10.0 mi NW 10.4 mph 16.1 mph N/A   Scattered Clouds
2:34 PM 78.6 °F 48.7 °F 35% 30.03 in 10.0 mi NW 11.5 mph 17.3 mph N/A   Scattered Clouds
2:55 PM 78.3 °F 48.0 °F 34% 30.03 in 10.0 mi NW 8.1 mph - N/A   Scattered Clouds
3:15 PM 79.3 °F 46.0 °F 31% 30.03 in 10.0 mi WNW 11.5 mph 17.3 mph N/A   Mostly Cloudy
3:34 PM 78.3 °F 46.6 °F 33% 30.02 in 10.0 mi NNW 9.2 mph - N/A   Scattered Clouds
3:55 PM 79.2 °F 45.3 °F 30% 30.03 in 10.0 mi WNW 10.4 mph 17.3 mph N/A   Scattered Clouds
4:15 PM 78.4 °F 46.2 °F 32% 30.02 in 10.0 mi WNW 9.2 mph 16.1 mph N/A   Scattered Clouds
4:35 PM 78.8 °F 46.4 °F 32% 30.02 in 10.0 mi West 9.2 mph - N/A   Scattered Clouds
4:55 PM 78.8 °F 47.7 °F 33% 30.03 in 10.0 mi NW 10.4 mph - N/A   Scattered Clouds
5:14 PM 77.5 °F 48.0 °F 35% 30.03 in 10.0 mi NNW 9.2 mph - N/A   Mostly Cloudy
5:35 PM 78.1 °F 47.3 °F 34% 30.03 in 10.0 mi NW 10.4 mph 16.1 mph N/A   Mostly Cloudy
5:54 PM 78.4 °F 48.9 °F 35% 30.02 in 10.0 mi NNW 8.1 mph 17.3 mph N/A   Scattered Clouds
6:15 PM 78.8 °F 47.7 °F 33% 30.02 in 10.0 mi West 12.7 mph - N/A   Scattered Clouds
6:34 PM 77.5 °F 48.9 °F 36% 30.02 in 10.0 mi NW 13.8 mph 17.3 mph N/A   Scattered Clouds
6:55 PM 77.0 °F 48.2 °F 36% 30.02 in 10.0 mi WNW 9.2 mph - N/A   Clear
7:15 PM 76.6 °F 48.7 °F 37% 30.02 in 10.0 mi WNW 10.4 mph - N/A   Clear
7:35 PM 76.5 °F 49.8 °F 39% 30.02 in 10.0 mi NW 10.4 mph - N/A   Clear
7:55 PM 75.4 °F 49.6 °F 40% 30.03 in 10.0 mi NW 8.1 mph - N/A   Clear
8:15 PM 74.8 °F 50.0 °F 42% 30.03 in 10.0 mi NW 6.9 mph - N/A   Scattered Clouds
8:35 PM 74.3 °F 50.7 °F 43% 30.03 in 10.0 mi NW 4.6 mph - N/A   Mostly Cloudy
8:54 PM 74.1 °F 50.5 °F 43% 30.04 in 10.0 mi NW 5.8 mph - N/A   Mostly Cloudy
9:15 PM 73.0 °F 51.4 °F 47% 30.04 in 10.0 mi North 6.9 mph - N/A   Overcast
9:35 PM 72.5 °F 52.2 °F 49% 30.05 in 10.0 mi NNW 6.9 mph - N/A   Mostly Cloudy
9:55 PM 71.8 °F 52.7 °F 51% 30.05 in 10.0 mi North 13.8 mph - N/A   Mostly Cloudy
10:15 PM 70.5 °F 52.7 °F 53% 30.06 in 10.0 mi North 8.1 mph - N/A   Scattered Clouds
10:34 PM 69.8 °F 52.7 °F 54% 30.07 in 10.0 mi North 8.1 mph 17.3 mph N/A   Clear
10:55 PM 68.9 °F 52.2 °F 55% 30.07 in 10.0 mi North 10.4 mph - N/A   Clear
11:15 PM 68.2 °F 52.3 °F 57% 30.07 in 10.0 mi NNW 4.6 mph - N/A   Clear
11:35 PM 67.3 °F 52.5 °F 59% 30.08 in 10.0 mi North 8.1 mph - N/A   Clear
11:55 PM 66.6 °F 52.7 °F 61% 30.09 in 10.0 mi North 6.9 mph - N/A   Scattered Clouds